CYXU

London Airport

London, Ontario, Canada
METAR CYXU 151300Z 22009KT 15SM BKN046 OVC110 M08/M11 A2989 RMK SC5AC3 SLP142
Observed Flight Rules
Dec-15 @ 13:00 UTC (59 minutes ago) Visual Flight Rules
Wind Visibility Clouds
220° at 9 knots 15 miles
  • Broken at 4,600' AGL
  • Overcast at 11,000' AGL
Temperatures Readings
Current -8°C / 18°F
Dewpoint -11°C / 12°F
Humidity 79%
Altimeter 29.89" Hg
Pressure 1014.2 hPa
Elevation 278
METAR CYXU 151300Z 22009KT 15SM BKN046 OVC110 M08/M11 A2989 RMK SC5AC3 SLP142
Observed Flight Rules
Dec-15 @ 13:00 UTC
(59 minutes ago)
VFR
Wind Visibility
220° at 9 knots 15 miles
Clouds
  • Broken at 4,600' AGL
  • Overcast at 11,000' AGL
Temperature Dewpoint
-8°C / 18°F -11°C / 12°F
Humidity Altimeter Pressure
79% 29.89" Hg 1014.2 hPa